Airfield :
LOGIN :

Register | Disclaimer

   EN    FR    IT 

 










Legend :    VFR   Marginal VFR   IFR   Intensive IFR   Very Intensive IFR
Visi :
Ceiling :
>= 8 km
>= 3000ft
5 to 8 km
1000 to 3000 ft
1500m to 5 km
500 to 1000 ft
800 to 1500m
200 to 500 ft
< 800m
< 200 ft
Symbols :   Thunderstorms  Fog  Heavy snow  Heavy precipitations  Wind > 20 kt
SIGMETs :     Misc.  Thunderstorms  Icing  Turbulence  Mountain Waves  Volcanic Ashes






- Airport Elevation : 1278 ft
- IATA code : QRT


LIQN - Rieti

CURRENT METAR :
  • 181250Z 01010KT 340V090 9999 VCSH SCT035 13/05 Q1007

EXPIRED METARs :
  • 181150Z 20009KT 170V230 9999 -RA NSC 12/02 Q1007
  • 181050Z 21009KT 170V230 CAVOK 13/M00 Q1007
  • 180950Z VRB04KT CAVOK 14/03 Q1007
  • 180850Z VRB01KT CAVOK 12/05 Q1007

TAF N/A



MET'MAP, your aeronautical weather chart ! - Copyright ORBIFLY December 2007 - Disclaimer

ORBIFLY MET'MAP TEAM :

Programming & Development : Alexandra Zaïnal
Original concept : Baudouin d'Aumeries
Technical & hardware support : Manuel Goepfert
Assistance : Marc-Olivier Méhu




SOURCES & CREDITS :

   NOAA